Time;durP1;ratioP1;P1;durP2;ratioP2;P2;SDS_P1;SDS_P2;PMS_P1;PMS_P2;Temp;Humidity;BMP_temperature;BMP_pressure;BME280_temperature;BME280_humidity;BME280_pressure;Samples;Min_cycle;Max_cycle;Signal;HPM_P1;HPM_P2
2024/03/30 00:00:20;;;;;;;;;;;;;;;17.03;70.23;99805.25;5052073;27;97358;-72
2024/03/30 00:02:47;;;;;;;;;;;;;;;16.98;70.02;99809.22;5051559;27;98823;-71
2024/03/30 00:05:13;;;;;;;;;;;;;;;16.92;70.75;99807.03;5051501;27;98576;-71
2024/03/30 00:07:44;;;;;;;;;;;;;;;16.68;70.95;99801.72;5052357;27;96634;-71
2024/03/30 00:10:10;;;;;;;;;;;;;;;16.78;70.86;99801.91;5051727;27;96753;-71
2024/03/30 00:12:35;;;;;;;;;;;;;;;16.81;70.89;99802.50;5051234;27;98796;-71
2024/03/30 00:15:02;;;;;;;;;;;;;;;16.73;71.88;99803.09;5052155;27;97515;-70
2024/03/30 00:17:27;;;;;;;;;;;;;;;16.63;72.25;99804.75;5051821;27;96843;-70
2024/03/30 00:19:55;;;;;;;;;;;;;;;16.73;71.63;99804.91;5051696;27;96971;-71
2024/03/30 00:22:20;;;;;;;;;;;;;;;16.78;71.40;99804.56;5050857;27;101866;-70
2024/03/30 00:24:46;;;;;;;;;;;;;;;16.71;71.69;99806.84;5051677;27;98818;-70
2024/03/30 00:27:12;;;;;;;;;;;;;;;16.87;70.70;99810.03;5054055;27;96904;-71
2024/03/30 00:29:38;;;;;;;;;;;;;;;16.78;70.99;99807.22;5055825;27;96957;-70
2024/03/30 00:32:03;;;;;;;;;;;;;;;16.69;71.37;99808.75;5054300;27;98826;-71
2024/03/30 00:34:32;;;;;;;;;;;;;;;16.72;71.61;99809.41;5054942;27;100419;-71
2024/03/30 00:36:59;;;;;;;;;;;;;;;16.76;71.02;99804.66;5055917;27;96988;-71
2024/03/30 00:39:25;;;;;;;;;;;;;;;16.84;70.45;99812.09;5055382;27;96784;-72
2024/03/30 00:41:51;;;;;;;;;;;;;;;16.69;71.69;99808.75;5054041;27;99162;-71
2024/03/30 00:44:17;;;;;;;;;;;;;;;16.76;71.86;99804.66;5055050;27;99924;-71
2024/03/30 00:46:42;;;;;;;;;;;;;;;16.77;71.27;99790.38;5054533;27;96743;-71
2024/03/30 00:49:10;;;;;;;;;;;;;;;16.80;70.91;99783.97;5055450;27;96668;-71
2024/03/30 00:51:35;;;;;;;;;;;;;;;16.87;70.44;99785.19;5054049;27;97783;-71
2024/03/30 00:54:02;;;;;;;;;;;;;;;16.82;71.23;99784.69;5054406;27;98804;-70
2024/03/30 00:56:30;;;;;;;;;;;;;;;16.85;70.93;99777.31;5054807;27;96754;-71
2024/03/30 00:58:56;;;;;;;;;;;;;;;16.77;71.44;99773.50;5050860;27;96868;-70
2024/03/30 01:01:22;;;;;;;;;;;;;;;16.55;72.27;99774.25;5053388;27;98847;-71
2024/03/30 01:03:48;;;;;;;;;;;;;;;16.34;73.14;99772.22;5049458;27;99338;-72
2024/03/30 01:06:13;;;;;;;;;;;;;;;16.37;73.19;99771.16;5054685;27;96815;-71
2024/03/30 01:08:40;;;;;;;;;;;;;;;16.22;73.67;99777.59;5054828;27;96893;-71
2024/03/30 01:11:07;;;;;;;;;;;;;;;16.19;73.90;99773.38;5053263;27;98959;-70
2024/03/30 01:13:33;;;;;;;;;;;;;;;16.04;74.46;99768.31;5054549;27;98776;-70
2024/03/30 01:15:59;;;;;;;;;;;;;;;15.95;74.84;99764.50;5054231;27;97006;-70
2024/03/30 01:18:26;;;;;;;;;;;;;;;15.97;74.63;99770.56;5054850;27;96878;-71
2024/03/30 01:20:52;;;;;;;;;;;;;;;16.04;74.25;99761.16;5053437;27;99410;-70
2024/03/30 01:23:19;;;;;;;;;;;;;;;16.05;74.96;99756.69;5054313;27;100819;-70
2024/03/30 01:25:44;;;;;;;;;;;;;;;15.84;75.70;99751.97;5054455;27;96771;-70
2024/03/30 01:28:12;;;;;;;;;;;;;;;15.86;75.46;99750.06;5056152;27;97030;-70
2024/03/30 01:30:38;;;;;;;;;;;;;;;15.83;75.22;99744.09;5053228;27;98081;-70
2024/03/30 01:33:04;;;;;;;;;;;;;;;15.83;74.63;99744.94;5053366;27;98936;-71
2024/03/30 01:35:30;;;;;;;;;;;;;;;15.94;74.54;99747.69;5053170;27;97204;-71
2024/03/30 01:37:56;;;;;;;;;;;;;;;15.84;75.42;99754.63;5053908;27;96765;-71
2024/03/30 01:40:21;;;;;;;;;;;;;;;15.75;75.67;99751.81;5053038;27;102032;-71
2024/03/30 01:42:47;;;;;;;;;;;;;;;15.68;75.42;99753.22;5053708;27;100581;-71
2024/03/30 01:45:14;;;;;;;;;;;;;;;15.61;75.41;99750.13;5053478;27;97319;-71
2024/03/30 01:47:40;;;;;;;;;;;;;;;15.60;75.32;99747.56;5054482;27;97150;-70
2024/03/30 01:50:06;;;;;;;;;;;;;;;15.56;75.48;99751.44;5053181;27;98786;-71
2024/03/30 01:52:33;;;;;;;;;;;;;;;15.48;75.26;99760.78;5053757;27;102708;-71
2024/03/30 01:54:59;;;;;;;;;;;;;;;15.56;75.13;99768.22;5053742;27;96862;-71
2024/03/30 01:57:26;;;;;;;;;;;;;;;15.48;75.45;99766.09;5053793;27;96757;-71
2024/03/30 01:59:52;;;;;;;;;;;;;;;15.62;74.89;99772.28;5052632;27;99424;-71
2024/03/30 02:02:20;;;;;;;;;;;;;;;15.37;76.28;99765.13;5052811;27;98712;-71
2024/03/30 02:04:46;;;;;;;;;;;;;;;15.38;76.81;99765.03;5053715;27;96801;-70
2024/03/30 02:07:13;;;;;;;;;;;;;;;15.37;77.20;99768.66;5053470;27;96826;-70
2024/03/30 02:09:38;;;;;;;;;;;;;;;15.51;76.49;99754.38;5053086;27;102232;-71
2024/03/30 02:12:05;;;;;;;;;;;;;;;15.63;75.60;99764.16;5052687;27;98690;-71
2024/03/30 02:14:31;;;;;;;;;;;;;;;15.45;76.54;99760.97;5053540;27;96705;-70
2024/03/30 02:16:57;;;;;;;;;;;;;;;15.23;76.52;99771.44;5053895;27;97404;-69
2024/03/30 02:19:25;;;;;;;;;;;;;;;15.29;76.73;99762.19;5053061;27;101133;-70
2024/03/30 02:21:52;;;;;;;;;;;;;;;15.41;76.33;99751.53;5052247;27;98792;-70
2024/03/30 02:24:19;;;;;;;;;;;;;;;15.35;75.95;99759.94;5053135;27;96970;-70
2024/03/30 02:26:45;;;;;;;;;;;;;;;15.41;76.07;99746.19;5052998;27;96875;-70
2024/03/30 02:29:12;;;;;;;;;;;;;;;15.54;75.19;99739.06;5052952;27;99085;-69
2024/03/30 02:31:38;;;;;;;;;;;;;;;15.43;75.63;99752.25;5052183;27;99097;-70
2024/03/30 02:34:04;;;;;;;;;;;;;;;15.39;76.01;99750.78;5052992;27;96776;-70
2024/03/30 02:36:31;;;;;;;;;;;;;;;15.37;75.76;99744.69;5053169;27;97131;-74
2024/03/30 02:38:57;;;;;;;;;;;;;;;15.56;74.75;99746.91;5052915;27;101647;-73
2024/03/30 02:41:24;;;;;;;;;;;;;;;15.41;74.72;99746.19;5052884;27;98816;-71
2024/03/30 02:43:53;;;;;;;;;;;;;;;15.50;74.55;99748.19;5053744;27;97412;-73
2024/03/30 02:46:19;;;;;;;;;;;;;;;15.75;73.62;99739.31;5053760;27;97306;-74
2024/03/30 02:48:45;;;;;;;;;;;;;;;15.61;73.45;99739.47;5052968;27;99106;-74
2024/03/30 02:51:11;;;;;;;;;;;;;;;15.73;72.34;99743.06;5052369;27;99316;-73
2024/03/30 02:53:36;;;;;;;;;;;;;;;15.85;71.83;99747.50;5053583;27;97053;-72
2024/03/30 02:56:02;;;;;;;;;;;;;;;15.85;71.94;99743.03;5053263;27;96818;-74
2024/03/30 02:58:29;;;;;;;;;;;;;;;15.96;71.45;99734.22;5052754;27;98887;-73
2024/03/30 03:00:56;;;;;;;;;;;;;;;15.84;71.63;99745.78;5052678;27;98849;-73
2024/03/30 03:03:22;;;;;;;;;;;;;;;15.88;71.66;99744.63;5052558;27;97021;-74
2024/03/30 03:05:48;;;;;;;;;;;;;;;15.98;71.27;99742.97;5053854;27;97186;-73
2024/03/30 03:08:14;;;;;;;;;;;;;;;15.90;71.47;99745.34;5052925;27;98802;-73
2024/03/30 03:10:41;;;;;;;;;;;;;;;15.88;71.61;99744.63;5053147;27;97671;-72
2024/03/30 03:13:06;;;;;;;;;;;;;;;15.80;71.76;99749.66;5052699;27;96923;-73
2024/03/30 03:15:37;;;;;;;;;;;;;;;15.91;71.15;99744.38;5053757;27;97979;-73
2024/03/30 03:18:04;;;;;;;;;;;;;;;15.86;71.29;99755.38;5052826;27;98951;-73
2024/03/30 03:20:30;;;;;;;;;;;;;;;15.75;71.70;99765.94;5052350;27;100098;-71
2024/03/30 03:22:55;;;;;;;;;;;;;;;15.67;72.46;99754.16;5052226;27;96887;-73
2024/03/30 03:25:22;;;;;;;;;;;;;;;15.65;72.34;99762.25;5052554;27;97238;-72
2024/03/30 03:27:47;;;;;;;;;;;;;;;15.75;72.05;99752.63;5053169;27;98991;-73
2024/03/30 03:30:13;;;;;;;;;;;;;;;15.73;71.92;99745.72;5052571;27;101341;-73
2024/03/30 03:32:40;;;;;;;;;;;;;;;15.70;72.17;99753.94;5052398;27;97506;-73
2024/03/30 03:35:07;;;;;;;;;;;;;;;15.69;71.77;99738.91;5052591;27;96753;-73
2024/03/30 03:37:32;;;;;;;;;;;;;;;15.76;71.38;99740.16;5051476;27;98999;-73
2024/03/30 03:39:59;;;;;;;;;;;;;;;15.77;71.08;99741.88;5051565;27;98758;-73
2024/03/30 03:42:24;;;;;;;;;;;;;;;15.62;71.86;99738.50;5051664;27;96758;-73
2024/03/30 03:44:50;;;;;;;;;;;;;;;15.45;72.72;99736.16;5052702;27;96868;-74
2024/03/30 03:47:15;;;;;;;;;;;;;;;15.41;72.64;99730.22;5051964;27;98904;-74
2024/03/30 03:49:43;;;;;;;;;;;;;;;15.36;72.69;99740.31;5048842;27;97422;-74
2024/03/30 03:52:08;;;;;;;;;;;;;;;15.24;72.88;99735.88;5051982;27;97893;-74
2024/03/30 03:54:35;;;;;;;;;;;;;;;15.20;72.92;99723.75;5052466;27;96844;-73
2024/03/30 03:57:00;;;;;;;;;;;;;;;15.27;73.33;99729.50;5051881;27;98934;-74
2024/03/30 03:59:27;;;;;;;;;;;;;;;15.46;71.96;99732.56;5051366;27;98745;-74
2024/03/30 04:01:52;;;;;;;;;;;;;;;15.33;71.99;99721.06;5051939;27;96818;-74
2024/03/30 04:04:20;;;;;;;;;;;;;;;15.32;71.19;99722.03;5055861;27;96953;-73
2024/03/30 04:06:46;;;;;;;;;;;;;;;15.35;70.67;99719.16;5055069;27;99318;-73
2024/03/30 04:09:13;;;;;;;;;;;;;;;15.27;70.45;99726.84;5055398;27;97710;-73
2024/03/30 04:11:38;;;;;;;;;;;;;;;15.50;69.52;99737.53;5054767;27;96975;-73
2024/03/30 04:14:05;;;;;;;;;;;;;;;15.26;70.24;99739.28;5055567;27;96810;-73
2024/03/30 04:16:31;;;;;;;;;;;;;;;15.09;70.47;99750.28;5055051;27;98956;-73
2024/03/30 04:18:57;;;;;;;;;;;;;;;15.11;70.13;99751.00;5055559;27;98071;-73
2024/03/30 04:21:22;;;;;;;;;;;;;;;15.23;70.13;99744.81;5054623;27;96817;-71
2024/03/30 04:23:50;;;;;;;;;;;;;;;15.21;70.65;99754.72;5055697;27;96743;-73
2024/03/30 04:26:18;;;;;;;;;;;;;;;15.24;70.13;99749.19;5054276;27;98835;-73
2024/03/30 04:28:44;;;;;;;;;;;;;;;15.56;69.33;99746.91;5056117;27;99073;-72
2024/03/30 04:31:10;;;;;;;;;;;;;;;15.52;68.78;99734.78;5054518;27;96678;-72
2024/03/30 04:33:36;;;;;;;;;;;;;;;15.57;68.88;99737.97;5055298;27;96842;-73
2024/03/30 04:36:02;;;;;;;;;;;;;;;15.38;69.40;99750.88;5054730;27;99375;-73
2024/03/30 04:38:29;;;;;;;;;;;;;;;15.19;70.08;99748.66;5055240;27;98946;-72
2024/03/30 04:40:56;;;;;;;;;;;;;;;15.33;69.39;99759.19;5054810;27;97673;-72
2024/03/30 04:43:22;;;;;;;;;;;;;;;15.40;69.47;99755.13;5055588;27;96898;-73
2024/03/30 04:45:47;;;;;;;;;;;;;;;15.32;70.16;99753.97;5055104;27;97633;-73
2024/03/30 04:48:14;;;;;;;;;;;;;;;15.27;69.36;99748.97;5054905;27;101428;-73
2024/03/30 04:50:40;;;;;;;;;;;;;;;15.31;69.46;99745.13;5053953;27;97131;-73
2024/03/30 04:53:05;;;;;;;;;;;;;;;15.19;70.36;99759.31;5054618;27;96765;-74
2024/03/30 04:55:31;;;;;;;;;;;;;;;15.28;69.83;99764.00;5054721;27;98989;-73
2024/03/30 04:57:58;;;;;;;;;;;;;;;15.04;70.56;99755.91;5054777;27;98041;-73
2024/03/30 05:00:24;;;;;;;;;;;;;;;15.09;70.71;99758.25;5051588;27;96610;-73
2024/03/30 05:02:49;;;;;;;;;;;;;;;15.01;71.02;99750.81;5054746;27;97159;-72
2024/03/30 05:05:16;;;;;;;;;;;;;;;15.16;70.48;99746.22;5054469;27;98841;-72
2024/03/30 05:07:41;;;;;;;;;;;;;;;15.11;70.06;99745.69;5054527;27;98735;-73
2024/03/30 05:10:08;;;;;;;;;;;;;;;15.01;71.29;99744.63;5054553;27;96577;-73
2024/03/30 05:12:33;;;;;;;;;;;;;;;15.13;70.78;99743.78;5054532;27;96754;-73
2024/03/30 05:15:01;;;;;;;;;;;;;;;15.39;69.39;99736.59;5054370;27;99325;-73
2024/03/30 05:17:26;;;;;;;;;;;;;;;15.32;69.47;99733.53;5054660;27;98983;-74
2024/03/30 05:22:36;;;;;;;;;;;;;;;15.49;68.65;99730.50;5050804;27;96745;-73
2024/03/30 05:25:02;;;;;;;;;;;;;;;15.72;66.76;99720.91;5054628;27;98838;-74
2024/03/30 05:27:27;;;;;;;;;;;;;;;15.98;65.91;99729.66;5055385;27;97849;-73
2024/03/30 05:29:56;;;;;;;;;;;;;;;16.01;65.31;99737.44;5054256;27;96852;-74
2024/03/30 05:32:22;;;;;;;;;;;;;;;16.04;65.09;99731.00;5054370;27;96826;-73
2024/03/30 05:34:49;;;;;;;;;;;;;;;16.17;64.04;99727.31;5053777;27;98815;-74
2024/03/30 05:37:14;;;;;;;;;;;;;;;16.28;64.33;99740.69;5054565;27;97953;-74
2024/03/30 05:39:40;;;;;;;;;;;;;;;16.23;63.60;99739.34;5052561;27;99882;-74
2024/03/30 05:42:05;;;;;;;;;;;;;;;16.18;64.65;99729.03;5054020;27;97112;-73
2024/03/30 05:44:32;;;;;;;;;;;;;;;16.30;64.33;99720.09;5053336;27;97723;-74
2024/03/30 05:46:57;;;;;;;;;;;;;;;16.38;63.60;99722.19;5053621;27;98725;-73
2024/03/30 05:49:24;;;;;;;;;;;;;;;16.38;63.51;99719.53;5054038;27;96700;-74
2024/03/30 05:51:50;;;;;;;;;;;;;;;16.47;62.59;99713.53;5053425;27;96915;-73
2024/03/30 05:54:16;;;;;;;;;;;;;;;16.51;62.67;99706.13;5053940;27;98966;-73
2024/03/30 05:56:41;;;;;;;;;;;;;;;16.46;62.57;99710.97;5053900;27;98771;-73
2024/03/30 05:59:07;;;;;;;;;;;;;;;16.39;61.64;99720.38;5053237;27;96978;-73
2024/03/30 06:01:33;;;;;;;;;;;;;;;16.40;62.54;99722.09;5053213;27;96812;-73
2024/03/30 06:03:59;;;;;;;;;;;;;;;16.42;61.93;99722.81;5052947;27;98156;-73
2024/03/30 06:06:25;;;;;;;;;;;;;;;16.59;60.91;99712.56;5053614;27;99311;-73
2024/03/30 06:08:52;;;;;;;;;;;;;;;16.63;59.43;99715.88;5053852;27;96964;-73
2024/03/30 06:11:17;;;;;;;;;;;;;;;16.82;59.17;99704.63;5053254;27;97065;-73
2024/03/30 06:13:43;;;;;;;;;;;;;;;17.02;58.96;99712.78;5053199;27;98879;-74
2024/03/30 06:16:08;;;;;;;;;;;;;;;17.02;58.01;99710.13;5053347;27;99309;-73
2024/03/30 06:18:35;;;;;;;;;;;;;;;16.96;57.84;99715.09;5053692;27;96616;-74
2024/03/30 06:21:00;;;;;;;;;;;;;;;17.03;57.66;99713.66;5053639;27;96786;-72
2024/03/30 06:23:27;;;;;;;;;;;;;;;17.10;57.50;99723.72;5052911;27;98874;-73
2024/03/30 06:25:53;;;;;;;;;;;;;;;16.99;56.91;99726.41;5052346;27;101482;-73
2024/03/30 06:28:19;;;;;;;;;;;;;;;16.78;58.14;99722.72;5054119;27;98213;-73
2024/03/30 06:30:44;;;;;;;;;;;;;;;16.86;57.81;99720.31;5053400;27;97024;-75
2024/03/30 06:33:11;;;;;;;;;;;;;;;17.08;57.46;99714.97;5052948;27;99618;-72
2024/03/30 06:35:37;;;;;;;;;;;;;;;17.25;56.89;99731.50;5053235;27;98822;-74
2024/03/30 06:38:03;;;;;;;;;;;;;;;17.16;55.83;99730.41;5053699;27;96793;-74
2024/03/30 06:46:00;;;;;;;;;;;;;;;17.34;56.04;99736.09;5053548;27;97004;-75
2024/03/30 06:48:26;;;;;;;;;;;;;;;17.21;55.78;99732.69;5053408;27;96810;-74
2024/03/30 06:50:52;;;;;;;;;;;;;;;17.47;55.20;99726.13;5052805;27;96901;-74
2024/03/30 06:53:18;;;;;;;;;;;;;;;17.42;54.89;99737.19;5053043;27;99408;-72
2024/03/30 06:55:45;;;;;;;;;;;;;;;17.39;55.18;99734.75;5052631;27;98806;-73
2024/03/30 06:58:11;;;;;;;;;;;;;;;17.33;55.36;99732.56;5053469;27;96710;-73
2024/03/30 07:00:36;;;;;;;;;;;;;;;17.69;55.18;99746.69;5053754;27;96806;-74
2024/03/30 07:03:03;;;;;;;;;;;;;;;17.78;54.27;99746.81;5052978;27;99527;-73
2024/03/30 07:05:28;;;;;;;;;;;;;;;17.71;54.21;99742.91;5053181;27;97835;-74
2024/03/30 07:07:54;;;;;;;;;;;;;;;17.81;54.07;99735.84;5053366;27;96773;-74
2024/03/30 07:10:20;;;;;;;;;;;;;;;17.87;54.13;99718.47;5053610;27;96807;-73
2024/03/30 07:12:49;;;;;;;;;;;;;;;18.07;53.70;99709.66;5050895;27;97339;-73
2024/03/30 07:15:14;;;;;;;;;;;;;;;18.11;53.55;99715.63;5052499;27;98720;-75
2024/03/30 07:17:40;;;;;;;;;;;;;;;18.21;53.70;99713.84;5052608;27;96663;-73
2024/03/30 07:20:06;;;;;;;;;;;;;;;18.33;52.96;99723.53;5052505;27;96709;-73
2024/03/30 07:22:32;;;;;;;;;;;;;;;18.24;53.17;99724.31;5052169;27;98020;-74
2024/03/30 07:24:57;;;;;;;;;;;;;;;18.46;52.83;99726.03;5052363;27;97732;-74
2024/03/30 07:27:23;;;;;;;;;;;;;;;18.80;52.02;99719.53;5052605;27;96706;-73
2024/03/30 07:29:50;;;;;;;;;;;;;;;18.91;51.08;99727.50;5052526;27;98707;-73
2024/03/30 07:32:17;;;;;;;;;;;;;;;19.17;50.76;99719.88;5051884;27;98830;-74
2024/03/30 07:34:44;;;;;;;;;;;;;;;19.14;50.97;99717.50;5052205;27;98863;-74
2024/03/30 07:37:11;;;;;;;;;;;;;;;19.38;50.37;99718.00;5054032;27;96785;-73
2024/03/30 07:39:36;;;;;;;;;;;;;;;19.42;50.74;99710.56;5055603;27;97356;-73
2024/03/30 07:42:02;;;;;;;;;;;;;;;19.82;48.80;99708.72;5055985;27;98966;-73
2024/03/30 07:44:29;;;;;;;;;;;;;;;20.10;47.92;99704.38;5055861;27;98919;-74
2024/03/30 07:46:56;;;;;;;;;;;;;;;19.91;48.66;99709.72;5055825;27;96807;-74
2024/03/30 07:49:22;;;;;;;;;;;;;;;20.09;47.46;99697.31;5055952;27;96823;-73
2024/03/30 07:51:48;;;;;;;;;;;;;;;20.20;47.61;99707.94;5054797;27;98821;-74
2024/03/30 07:54:13;;;;;;;;;;;;;;;20.15;47.68;99707.50;5055884;27;97676;-74
2024/03/30 07:56:41;;;;;;;;;;;;;;;20.04;47.78;99707.63;5055961;27;97000;-74
2024/03/30 07:59:06;;;;;;;;;;;;;;;19.99;48.25;99707.22;5056225;27;96886;-74
2024/03/30 08:01:33;;;;;;;;;;;;;;;20.16;47.96;99708.34;5054992;27;99505;-74
2024/03/30 08:04:00;;;;;;;;;;;;;;;20.07;47.82;99712.72;5050722;27;98771;-73
2024/03/30 08:06:26;;;;;;;;;;;;;;;20.18;47.57;99704.53;5054975;27;96813;-73
2024/03/30 08:08:51;;;;;;;;;;;;;;;20.22;47.83;99705.94;5055125;27;97682;-73
2024/03/30 08:11:18;;;;;;;;;;;;;;;20.22;47.52;99710.47;5053735;27;97916;-73
2024/03/30 08:13:43;;;;;;;;;;;;;;;20.11;47.52;99708.78;5045781;27;98628;-72
2024/03/30 08:16:09;;;;;;;;;;;;;;;20.53;47.43;99697.78;5054527;27;97200;-72
2024/03/30 08:18:34;;;;;;;;;;;;;;;20.65;46.99;99697.50;5056599;27;96961;-74
2024/03/30 08:21:03;;;;;;;;;;;;;;;20.65;46.43;99696.66;5053787;27;98745;-74
2024/03/30 08:23:29;;;;;;;;;;;;;;;20.79;46.55;99700.72;5055401;27;101633;-74
2024/03/30 08:25:56;;;;;;;;;;;;;;;20.71;46.80;99706.81;5055175;27;96851;-74
2024/03/30 08:28:21;;;;;;;;;;;;;;;20.71;46.79;99704.13;5057142;27;97309;-74
2024/03/30 08:30:49;;;;;;;;;;;;;;;20.83;46.82;99707.47;5052367;27;100034;-73
2024/03/30 08:33:14;;;;;;;;;;;;;;;20.74;46.88;99701.16;5054719;27;99188;-74
2024/03/30 08:35:41;;;;;;;;;;;;;;;20.63;46.74;99712.03;5054753;27;96781;-74
2024/03/30 08:38:08;;;;;;;;;;;;;;;20.83;46.09;99699.44;5054959;27;97281;-74
2024/03/30 08:40:34;;;;;;;;;;;;;;;20.98;45.88;99698.84;5054069;27;98887;-74
2024/03/30 08:42:59;;;;;;;;;;;;;;;20.90;46.18;99689.81;5054671;27;98775;-73
2024/03/30 08:45:25;;;;;;;;;;;;;;;21.01;45.96;99685.09;5058081;27;96782;-73
2024/03/30 08:47:51;;;;;;;;;;;;;;;20.87;46.35;99684.75;5056098;27;96860;-73
2024/03/30 08:50:17;;;;;;;;;;;;;;;20.99;46.38;99683.56;5054403;27;98858;-73
2024/03/30 08:52:42;;;;;;;;;;;;;;;21.43;45.08;99677.47;5054565;27;98886;-73
2024/03/30 08:55:10;;;;;;;;;;;;;;;21.62;44.57;99686.41;5054875;27;97059;-72
2024/03/30 08:57:35;;;;;;;;;;;;;;;21.61;44.49;99688.25;5053360;27;97331;-72
2024/03/30 09:00:02;;;;;;;;;;;;;;;21.54;44.50;99687.16;5052621;27;99452;-72
2024/03/30 09:02:31;;;;;;;;;;;;;;;21.39;45.02;99696.75;5050853;27;98677;-73
2024/03/30 09:04:58;;;;;;;;;;;;;;;21.28;45.39;99688.84;5054247;27;96810;-73
2024/03/30 09:07:23;;;;;;;;;;;;;;;21.60;44.81;99691.94;5054551;27;96832;-73
2024/03/30 09:09:49;;;;;;;;;;;;;;;21.46;44.41;99687.91;5053432;27;98906;-74
2024/03/30 09:12:16;;;;;;;;;;;;;;;21.55;44.68;99685.31;5053809;27;99189;-72
2024/03/30 09:14:42;;;;;;;;;;;;;;;21.58;44.42;99688.59;5054337;27;96798;-72
2024/03/30 09:17:07;;;;;;;;;;;;;;;21.50;44.50;99693.84;5054022;27;96909;-73
2024/03/30 09:19:34;;;;;;;;;;;;;;;21.31;44.87;99688.56;5053318;27;98947;-71
2024/03/30 09:21:59;;;;;;;;;;;;;;;21.29;45.16;99690.53;5053504;27;98761;-71
2024/03/30 09:24:25;;;;;;;;;;;;;;;21.25;45.38;99681.94;5054389;27;97138;-70
2024/03/30 09:26:51;;;;;;;;;;;;;;;21.26;45.03;99690.84;5050988;27;96892;-70
2024/03/30 09:29:18;;;;;;;;;;;;;;;21.23;45.40;99686.63;5053035;27;99131;-70
2024/03/30 09:31:44;;;;;;;;;;;;;;;21.38;44.86;99678.91;5053536;27;99185;-71
2024/03/30 09:34:10;;;;;;;;;;;;;;;21.65;44.56;99676.22;5054167;27;97011;-70
2024/03/30 09:36:35;;;;;;;;;;;;;;;21.70;43.80;99675.78;5054510;27;98392;-70
2024/03/30 09:39:01;;;;;;;;;;;;;;;22.17;42.85;99680.00;5052886;27;99243;-71
2024/03/30 09:41:30;;;;;;;;;;;;;;;22.30;42.10;99685.00;5048689;27;99110;-69
2024/03/30 09:43:56;;;;;;;;;;;;;;;22.65;41.93;99686.78;5052208;27;96746;-71
2024/03/30 09:46:23;;;;;;;;;;;;;;;23.09;40.75;99674.16;5053326;27;97353;-70
2024/03/30 09:48:51;;;;;;;;;;;;;;;22.98;40.70;99672.56;5051732;27;98133;-70
2024/03/30 09:51:16;;;;;;;;;;;;;;;23.12;40.16;99664.88;5050583;27;97563;-71
2024/03/30 09:53:44;;;;;;;;;;;;;;;23.26;39.67;99670.53;5053971;27;97594;-69
2024/03/30 09:56:10;;;;;;;;;;;;;;;23.21;39.91;99669.31;5053905;27;96959;-70
2024/03/30 09:58:36;;;;;;;;;;;;;;;23.02;39.93;99673.94;5053171;27;97529;-70
2024/03/30 10:01:03;;;;;;;;;;;;;;;23.16;39.82;99667.13;5051608;27;98711;-70
2024/03/30 10:03:30;;;;;;;;;;;;;;;23.15;39.91;99659.19;5053716;27;96739;-70
2024/03/30 10:05:57;;;;;;;;;;;;;;;23.34;39.63;99651.69;5053847;27;97093;-70
2024/03/30 10:08:27;;;;;;;;;;;;;;;23.58;38.80;99659.06;5052517;27;98873;-70
2024/03/30 10:10:53;;;;;;;;;;;;;;;23.67;38.38;99651.84;5052424;27;98732;-69
2024/03/30 10:13:24;;;;;;;;;;;;;;;23.67;38.22;99654.53;5053502;27;96879;-70
2024/03/30 10:15:52;;;;;;;;;;;;;;;23.82;38.31;99650.22;5053324;27;96683;-70
2024/03/30 10:18:18;;;;;;;;;;;;;;;23.91;38.18;99654.59;5053232;27;99265;-70
2024/03/30 10:20:45;;;;;;;;;;;;;;;24.00;37.67;99653.59;5053156;27;98803;-70
2024/03/30 10:23:11;;;;;;;;;;;;;;;24.08;37.52;99645.53;5052797;27;96749;-70
2024/03/30 10:25:37;;;;;;;;;;;;;;;24.09;37.79;99643.69;5054427;27;97044;-70
2024/03/30 10:28:03;;;;;;;;;;;;;;;24.09;37.72;99646.38;5054612;27;99004;-69
2024/03/30 10:30:29;;;;;;;;;;;;;;;24.48;37.11;99641.19;5052920;27;101694;-70
2024/03/30 10:32:59;;;;;;;;;;;;;;;24.17;37.38;99641.81;5052260;27;97144;-70
2024/03/30 10:35:25;;;;;;;;;;;;;;;24.50;37.21;99644.53;5053348;27;97192;-70
2024/03/30 10:37:53;;;;;;;;;;;;;;;24.59;36.71;99632.72;5052924;27;99281;-71
2024/03/30 10:40:19;;;;;;;;;;;;;;;24.46;36.05;99637.78;5049108;27;101249;-70
2024/03/30 10:42:45;;;;;;;;;;;;;;;24.33;36.15;99630.22;5054225;27;96755;-70
2024/03/30 10:45:10;;;;;;;;;;;;;;;24.37;35.93;99631.53;5053268;27;96933;-70
2024/03/30 10:47:37;;;;;;;;;;;;;;;24.59;35.19;99635.41;5052548;27;99011;-71
2024/03/30 10:50:03;;;;;;;;;;;;;;;24.74;35.10;99636.41;5050986;27;98735;-71
2024/03/30 10:52:30;;;;;;;;;;;;;;;24.58;34.91;99629.19;5052211;27;97125;-69
2024/03/30 10:54:57;;;;;;;;;;;;;;;24.92;35.25;99628.13;5052272;27;96826;-70
2024/03/30 10:57:24;;;;;;;;;;;;;;;25.06;34.77;99635.53;5051917;27;98915;-69
2024/03/30 10:59:49;;;;;;;;;;;;;;;25.26;34.75;99627.84;5048899;27;98754;-70
2024/03/30 11:02:17;;;;;;;;;;;;;;;25.32;34.39;99632.56;5052006;27;97169;-70
2024/03/30 11:04:42;;;;;;;;;;;;;;;25.30;34.41;99626.47;5048144;27;96847;-70
2024/03/30 11:07:09;;;;;;;;;;;;;;;25.39;33.67;99625.44;5051892;27;99353;-70
2024/03/30 11:09:38;;;;;;;;;;;;;;;25.49;33.65;99626.03;5052304;27;99082;-72
2024/03/30 11:12:07;;;;;;;;;;;;;;;25.44;32.53;99617.63;5051250;27;96926;-69
2024/03/30 11:14:32;;;;;;;;;;;;;;;25.59;32.11;99624.00;5052838;27;96807;-69
2024/03/30 11:17:00;;;;;;;;;;;;;;;25.52;31.89;99614.88;5052329;27;101618;-70
2024/03/30 11:19:29;;;;;;;;;;;;;;;25.48;32.17;99618.94;5052145;27;98808;-72
2024/03/30 11:22:03;;;;;;;;;;;;;;;25.39;31.67;99615.47;5051067;27;96919;-69
2024/03/30 11:24:30;;;;;;;;;;;;;;;25.71;31.67;99608.22;5052427;27;96751;-71
2024/03/30 11:27:00;;;;;;;;;;;;;;;25.95;31.94;99616.16;5051987;27;100612;-71
2024/03/30 11:29:32;;;;;;;;;;;;;;;25.94;32.16;99614.47;5052463;27;98746;-71
2024/03/30 11:32:07;;;;;;;;;;;;;;;26.01;31.69;99609.16;5052106;27;97334;-70
2024/03/30 11:34:40;;;;;;;;;;;;;;;26.06;32.25;99607.59;5052966;27;99380;-70
2024/03/30 11:37:11;;;;;;;;;;;;;;;25.92;31.88;99607.56;5050089;27;99233;-70
2024/03/30 11:39:40;;;;;;;;;;;;;;;26.19;32.16;99605.13;5052005;27;100474;-69
2024/03/30 11:42:14;;;;;;;;;;;;;;;26.18;31.65;99608.03;5051679;27;97098;-70
2024/03/30 11:44:41;;;;;;;;;;;;;;;26.13;30.85;99600.44;5052451;27;96702;-71
2024/03/30 11:47:08;;;;;;;;;;;;;;;26.12;30.92;99601.47;5043506;27;98836;-70
2024/03/30 11:49:33;;;;;;;;;;;;;;;26.02;30.79;99600.03;5051610;27;99858;-70
2024/03/30 11:52:00;;;;;;;;;;;;;;;25.84;30.31;99607.63;5051798;27;96902;-69
2024/03/30 11:54:26;;;;;;;;;;;;;;;26.16;30.71;99594.69;5052052;27;97276;-70
2024/03/30 11:56:56;;;;;;;;;;;;;;;26.31;30.16;99593.91;5051845;27;98943;-70
2024/03/30 11:59:21;;;;;;;;;;;;;;;26.52;30.43;99586.75;5048216;27;98093;-69
2024/03/30 12:01:49;;;;;;;;;;;;;;;26.53;30.61;99585.72;5051293;27;96691;-70
2024/03/30 12:04:14;;;;;;;;;;;;;;;26.50;30.15;99578.00;5052249;27;96807;-72
2024/03/30 12:06:41;;;;;;;;;;;;;;;26.62;29.08;99591.91;5051536;27;98762;-70
2024/03/30 12:09:07;;;;;;;;;;;;;;;26.43;29.33;99582.44;5051204;27;98797;-70
2024/03/30 12:11:33;;;;;;;;;;;;;;;26.74;29.58;99576.88;5050852;27;96787;-72
2024/03/30 12:13:58;;;;;;;;;;;;;;;26.86;30.13;99574.53;5051354;27;96775;-71
2024/03/30 12:16:24;;;;;;;;;;;;;;;26.95;30.42;99570.75;5051012;27;99376;-71
2024/03/30 12:18:51;;;;;;;;;;;;;;;27.07;29.90;99571.09;5051395;27;100205;-71
2024/03/30 12:21:17;;;;;;;;;;;;;;;27.22;30.04;99567.34;5051255;27;98156;-71
2024/03/30 12:23:43;;;;;;;;;;;;;;;27.19;30.39;99573.16;5054083;27;96747;-71
2024/03/30 12:26:10;;;;;;;;;;;;;;;27.03;30.39;99573.38;5055067;27;98886;-71
2024/03/30 12:28:36;;;;;;;;;;;;;;;27.30;30.16;99564.53;5055138;27;99206;-71
2024/03/30 12:31:03;;;;;;;;;;;;;;;27.56;29.90;99555.06;5054271;27;96790;-71
2024/03/30 12:33:28;;;;;;;;;;;;;;;27.64;29.55;99549.47;5054905;27;96810;-72
2024/03/30 12:35:56;;;;;;;;;;;;;;;27.63;29.32;99547.84;5054023;27;99614;-70
2024/03/30 12:38:22;;;;;;;;;;;;;;;27.69;27.79;99541.63;5054629;27;101768;-71
2024/03/30 12:40:48;;;;;;;;;;;;;;;27.99;28.10;99536.88;5054772;27;97073;-71
2024/03/30 12:43:14;;;;;;;;;;;;;;;27.74;28.11;99540.00;5054334;27;96826;-71
2024/03/30 12:45:41;;;;;;;;;;;;;;;27.95;28.09;99536.47;5054293;27;102353;-71
2024/03/30 12:48:07;;;;;;;;;;;;;;;27.98;28.47;99530.63;5054190;27;99180;-71